Hood River, OR

2:06 PM PST on February 06, 2016 (GMT -0800)
MesoWest | | Change Station
CLOSE
Current Station
Personal Weather Station
Location: Hood River, OR
Elevation: 629 ft
Nearby Weather Stations

Elev 629 ft 45.67 °N, 121.54 °W | Updated 164 days ago

Partly Cloudy
Partly Cloudy
49 °F
Feels Like 49 °F
N
5
Wind Variable Wind from WSW
Gusts mph

Today
High -- | Low -- °F
--% Chance of Precip.
Yesterday
High -- | Low -- °F
Precip. -- in
Pressure 30.43 in
Visibility 10.0 miles
Clouds Clear
Dew Point 39 °F
Humidity 67%
Rainfall in
Snow Depth Not available.
7:21 AM 5:19 PM
Waning Crescent, 4% visible
METAR KDLS 062153Z AUTO 34007KT 10SM CLR 12/01 A3043 RMK AO2 SLP304 T01220011
Pressure 30.43 in
Visibility 10.0 miles
Clouds Clear
Dew Point 39 °F
Humidity 67%
Rainfall in
Snow Depth Not available.
7:21 AM 5:19 PM
Waning Crescent, 4% visible
METAR KDLS 062153Z AUTO 34007KT 10SM CLR 12/01 A3043 RMK AO2 SLP304 T01220011

10-Day Weather Forecast

Almanac

Astronomy

Feb. 06, 2016 Rise Set
Actual Time
Civil Twilight
Nautical Twilight
Astronomical Twilight
Moon
Length of Visible Light
Length of Day
Tomorrow will be .
, % of the Moon is Illuminated

Today's Extremes

State Highs State Lows

Community

WunderPhotos

Upload Photos

1,891,082 photos uploaded!

WunderBlog® & News

Nearby

Air Quality

  Air Quality AQ Index Pollutant
Not available.

Snow Depth

Station Depth Elevation

Earthquake Activity

City Distance Mag. Time & Date
Minimum magnitude displayed is 2.5.

Coastal Water Temperatures

Place Temperature

Stations

Nearby Weather Stations

Station Location Temp. Windchill Dew Point Humidity Wind Precip. Elev Updated Type
                   

Watches & Warnings

There are currently no watches in effect.